sensor_id;sensor_type;location;lat;lon;timestamp;P1;durP1;ratioP1;P2;durP2;ratioP2
66607;SDS011;53462;39.616;8.824;2023-02-24T00:01:14;20.45;;;9.68;;
66607;SDS011;53462;39.616;8.824;2023-02-24T00:03:52;16.25;;;9.20;;
66607;SDS011;53462;39.616;8.824;2023-02-24T00:06:27;19.48;;;9.85;;
66607;SDS011;53462;39.616;8.824;2023-02-24T00:09:08;20.20;;;9.18;;
66607;SDS011;53462;39.616;8.824;2023-02-24T00:11:38;18.67;;;10.00;;
66607;SDS011;53462;39.616;8.824;2023-02-24T00:14:11;16.77;;;9.20;;
66607;SDS011;53462;39.616;8.824;2023-02-24T00:16:43;18.52;;;9.88;;
66607;SDS011;53462;39.616;8.824;2023-02-24T00:19:13;17.98;;;9.82;;
66607;SDS011;53462;39.616;8.824;2023-02-24T00:21:42;17.08;;;9.98;;
66607;SDS011;53462;39.616;8.824;2023-02-24T00:24:09;19.33;;;10.13;;
66607;SDS011;53462;39.616;8.824;2023-02-24T00:26:35;19.92;;;10.30;;
66607;SDS011;53462;39.616;8.824;2023-02-24T00:29:06;19.45;;;10.02;;
66607;SDS011;53462;39.616;8.824;2023-02-24T00:31:34;19.60;;;10.73;;
66607;SDS011;53462;39.616;8.824;2023-02-24T00:34:04;22.80;;;10.25;;
66607;SDS011;53462;39.616;8.824;2023-02-24T00:36:30;24.33;;;10.48;;
66607;SDS011;53462;39.616;8.824;2023-02-24T00:38:59;23.52;;;10.88;;
66607;SDS011;53462;39.616;8.824;2023-02-24T00:41:30;19.50;;;10.80;;
66607;SDS011;53462;39.616;8.824;2023-02-24T00:44:00;22.33;;;11.00;;
66607;SDS011;53462;39.616;8.824;2023-02-24T00:46:33;24.05;;;10.98;;
66607;SDS011;53462;39.616;8.824;2023-02-24T00:49:02;22.27;;;10.60;;
66607;SDS011;53462;39.616;8.824;2023-02-24T00:51:30;17.00;;;9.65;;
66607;SDS011;53462;39.616;8.824;2023-02-24T00:54:03;18.02;;;9.48;;
66607;SDS011;53462;39.616;8.824;2023-02-24T00:56:31;17.02;;;8.77;;
66607;SDS011;53462;39.616;8.824;2023-02-24T00:58:58;12.20;;;7.82;;
66607;SDS011;53462;39.616;8.824;2023-02-24T01:01:29;15.45;;;8.40;;
66607;SDS011;53462;39.616;8.824;2023-02-24T01:03:59;13.95;;;7.57;;
66607;SDS011;53462;39.616;8.824;2023-02-24T01:06:36;14.55;;;7.55;;
66607;SDS011;53462;39.616;8.824;2023-02-24T01:09:04;12.60;;;6.82;;
66607;SDS011;53462;39.616;8.824;2023-02-24T01:11:33;13.05;;;6.78;;
66607;SDS011;53462;39.616;8.824;2023-02-24T01:14:21;13.20;;;5.68;;
66607;SDS011;53462;39.616;8.824;2023-02-24T01:16:51;12.20;;;5.35;;
66607;SDS011;53462;39.616;8.824;2023-02-24T01:19:19;14.05;;;5.13;;
66607;SDS011;53462;39.616;8.824;2023-02-24T01:21:46;16.92;;;6.18;;
66607;SDS011;53462;39.616;8.824;2023-02-24T01:24:18;11.32;;;5.40;;
66607;SDS011;53462;39.616;8.824;2023-02-24T01:26:44;13.57;;;5.70;;
66607;SDS011;53462;39.616;8.824;2023-02-24T01:29:09;14.25;;;5.13;;
66607;SDS011;53462;39.616;8.824;2023-02-24T01:31:36;10.65;;;5.07;;
66607;SDS011;53462;39.616;8.824;2023-02-24T01:34:04;10.93;;;5.80;;
66607;SDS011;53462;39.616;8.824;2023-02-24T01:36:30;11.68;;;5.30;;
66607;SDS011;53462;39.616;8.824;2023-02-24T01:38:59;14.35;;;5.40;;
66607;SDS011;53462;39.616;8.824;2023-02-24T01:41:25;11.00;;;4.65;;
66607;SDS011;53462;39.616;8.824;2023-02-24T01:44:06;12.35;;;5.10;;
66607;SDS011;53462;39.616;8.824;2023-02-24T01:46:53;10.45;;;5.00;;
66607;SDS011;53462;39.616;8.824;2023-02-24T01:49:31;11.82;;;5.00;;
66607;SDS011;53462;39.616;8.824;2023-02-24T01:52:17;13.32;;;5.10;;
66607;SDS011;53462;39.616;8.824;2023-02-24T01:54:59;8.43;;;4.40;;
66607;SDS011;53462;39.616;8.824;2023-02-24T01:57:44;7.90;;;4.80;;
66607;SDS011;53462;39.616;8.824;2023-02-24T02:00:12;11.95;;;4.43;;
66607;SDS011;53462;39.616;8.824;2023-02-24T02:02:58;10.30;;;4.57;;
66607;SDS011;53462;39.616;8.824;2023-02-24T02:05:28;13.77;;;5.35;;
66607;SDS011;53462;39.616;8.824;2023-02-24T02:07:54;11.55;;;4.70;;
66607;SDS011;53462;39.616;8.824;2023-02-24T02:10:21;13.10;;;4.63;;
66607;SDS011;53462;39.616;8.824;2023-02-24T02:12:47;12.18;;;4.82;;
66607;SDS011;53462;39.616;8.824;2023-02-24T02:15:16;11.88;;;4.90;;
66607;SDS011;53462;39.616;8.824;2023-02-24T02:26:00;12.95;;;5.40;;
66607;SDS011;53462;39.616;8.824;2023-02-24T02:34:05;13.85;;;4.88;;
66607;SDS011;53462;39.616;8.824;2023-02-24T02:36:48;9.60;;;5.07;;
66607;SDS011;53462;39.616;8.824;2023-02-24T02:39:34;9.15;;;4.85;;
66607;SDS011;53462;39.616;8.824;2023-02-24T02:42:25;12.65;;;4.82;;
66607;SDS011;53462;39.616;8.824;2023-02-24T02:50:44;10.63;;;4.90;;
66607;SDS011;53462;39.616;8.824;2023-02-24T02:55:58;11.57;;;4.70;;
66607;SDS011;53462;39.616;8.824;2023-02-24T02:58:29;12.23;;;5.10;;
66607;SDS011;53462;39.616;8.824;2023-02-24T03:00:59;11.27;;;5.13;;
66607;SDS011;53462;39.616;8.824;2023-02-24T03:03:33;14.52;;;4.97;;
66607;SDS011;53462;39.616;8.824;2023-02-24T03:06:27;12.55;;;5.32;;
66607;SDS011;53462;39.616;8.824;2023-02-24T03:11:41;12.65;;;4.88;;
66607;SDS011;53462;39.616;8.824;2023-02-24T03:14:10;9.50;;;4.70;;
66607;SDS011;53462;39.616;8.824;2023-02-24T03:16:39;11.82;;;5.05;;
66607;SDS011;53462;39.616;8.824;2023-02-24T03:19:10;15.23;;;5.10;;
66607;SDS011;53462;39.616;8.824;2023-02-24T03:21:43;9.05;;;4.90;;
66607;SDS011;53462;39.616;8.824;2023-02-24T03:24:14;15.63;;;4.95;;
66607;SDS011;53462;39.616;8.824;2023-02-24T03:26:52;11.75;;;4.88;;
66607;SDS011;53462;39.616;8.824;2023-02-24T03:37:11;11.73;;;6.25;;
66607;SDS011;53462;39.616;8.824;2023-02-24T03:39:37;12.73;;;5.43;;
66607;SDS011;53462;39.616;8.824;2023-02-24T03:42:11;10.52;;;5.30;;
66607;SDS011;53462;39.616;8.824;2023-02-24T03:44:42;15.80;;;5.32;;
66607;SDS011;53462;39.616;8.824;2023-02-24T03:47:10;15.60;;;5.50;;
66607;SDS011;53462;39.616;8.824;2023-02-24T03:49:38;12.18;;;5.95;;
66607;SDS011;53462;39.616;8.824;2023-02-24T04:00:45;12.35;;;5.60;;
66607;SDS011;53462;39.616;8.824;2023-02-24T04:09:12;12.73;;;7.00;;
66607;SDS011;53462;39.616;8.824;2023-02-24T04:12:33;15.75;;;6.60;;
66607;SDS011;53462;39.616;8.824;2023-02-24T04:20:08;14.75;;;6.10;;
66607;SDS011;53462;39.616;8.824;2023-02-24T04:22:49;11.38;;;6.30;;
66607;SDS011;53462;39.616;8.824;2023-02-24T04:25:20;14.40;;;6.53;;
66607;SDS011;53462;39.616;8.824;2023-02-24T04:27:50;13.35;;;5.85;;
66607;SDS011;53462;39.616;8.824;2023-02-24T04:30:18;12.93;;;5.65;;
66607;SDS011;53462;39.616;8.824;2023-02-24T04:32:46;15.38;;;6.03;;
66607;SDS011;53462;39.616;8.824;2023-02-24T04:35:14;12.02;;;5.80;;
66607;SDS011;53462;39.616;8.824;2023-02-24T04:37:48;12.57;;;5.80;;
66607;SDS011;53462;39.616;8.824;2023-02-24T04:40:16;17.83;;;5.80;;
66607;SDS011;53462;39.616;8.824;2023-02-24T04:42:46;14.88;;;5.85;;
66607;SDS011;53462;39.616;8.824;2023-02-24T04:45:34;12.63;;;6.10;;
66607;SDS011;53462;39.616;8.824;2023-02-24T04:48:00;10.93;;;6.13;;
66607;SDS011;53462;39.616;8.824;2023-02-24T04:50:30;15.23;;;6.65;;
66607;SDS011;53462;39.616;8.824;2023-02-24T04:52:59;10.18;;;6.47;;
66607;SDS011;53462;39.616;8.824;2023-02-24T04:55:40;12.57;;;6.45;;
66607;SDS011;53462;39.616;8.824;2023-02-24T04:58:11;13.07;;;7.07;;
66607;SDS011;53462;39.616;8.824;2023-02-24T05:00:38;16.95;;;6.93;;
66607;SDS011;53462;39.616;8.824;2023-02-24T05:03:06;12.70;;;6.47;;
66607;SDS011;53462;39.616;8.824;2023-02-24T05:05:35;13.07;;;6.85;;
66607;SDS011;53462;39.616;8.824;2023-02-24T05:08:03;13.52;;;6.60;;
66607;SDS011;53462;39.616;8.824;2023-02-24T05:10:36;14.13;;;7.13;;
66607;SDS011;53462;39.616;8.824;2023-02-24T05:13:10;15.77;;;7.38;;
66607;SDS011;53462;39.616;8.824;2023-02-24T05:15:39;12.68;;;6.75;;
66607;SDS011;53462;39.616;8.824;2023-02-24T05:18:06;13.88;;;7.28;;
66607;SDS011;53462;39.616;8.824;2023-02-24T05:20:37;15.73;;;6.85;;
66607;SDS011;53462;39.616;8.824;2023-02-24T05:23:27;13.80;;;6.97;;
66607;SDS011;53462;39.616;8.824;2023-02-24T05:25:59;14.93;;;6.38;;
66607;SDS011;53462;39.616;8.824;2023-02-24T05:28:25;15.20;;;7.53;;
66607;SDS011;53462;39.616;8.824;2023-02-24T05:31:02;17.20;;;7.68;;
66607;SDS011;53462;39.616;8.824;2023-02-24T05:33:36;14.90;;;7.38;;
66607;SDS011;53462;39.616;8.824;2023-02-24T05:36:04;12.35;;;6.65;;
66607;SDS011;53462;39.616;8.824;2023-02-24T05:38:33;15.90;;;6.97;;
66607;SDS011;53462;39.616;8.824;2023-02-24T05:41:09;16.52;;;7.15;;
66607;SDS011;53462;39.616;8.824;2023-02-24T05:43:42;13.80;;;6.95;;
66607;SDS011;53462;39.616;8.824;2023-02-24T05:46:17;12.95;;;7.13;;
66607;SDS011;53462;39.616;8.824;2023-02-24T05:48:43;13.38;;;7.47;;
66607;SDS011;53462;39.616;8.824;2023-02-24T05:51:15;14.07;;;7.07;;
66607;SDS011;53462;39.616;8.824;2023-02-24T05:53:41;14.82;;;7.50;;
66607;SDS011;53462;39.616;8.824;2023-02-24T05:56:08;17.40;;;7.63;;
66607;SDS011;53462;39.616;8.824;2023-02-24T05:58:34;15.60;;;7.10;;
66607;SDS011;53462;39.616;8.824;2023-02-24T06:01:12;16.65;;;6.95;;
66607;SDS011;53462;39.616;8.824;2023-02-24T06:03:45;17.27;;;7.60;;
66607;SDS011;53462;39.616;8.824;2023-02-24T06:06:15;15.65;;;7.80;;
66607;SDS011;53462;39.616;8.824;2023-02-24T06:08:42;16.88;;;8.45;;
66607;SDS011;53462;39.616;8.824;2023-02-24T06:11:15;18.37;;;8.10;;
66607;SDS011;53462;39.616;8.824;2023-02-24T06:13:43;17.15;;;8.13;;
66607;SDS011;53462;39.616;8.824;2023-02-24T06:16:12;13.65;;;8.40;;
66607;SDS011;53462;39.616;8.824;2023-02-24T06:18:43;16.60;;;7.68;;
66607;SDS011;53462;39.616;8.824;2023-02-24T06:21:12;15.90;;;8.30;;
66607;SDS011;53462;39.616;8.824;2023-02-24T06:23:38;19.08;;;8.98;;
66607;SDS011;53462;39.616;8.824;2023-02-24T06:26:06;19.67;;;7.60;;
66607;SDS011;53462;39.616;8.824;2023-02-24T06:28:37;17.42;;;7.93;;
66607;SDS011;53462;39.616;8.824;2023-02-24T06:31:07;17.75;;;8.15;;
66607;SDS011;53462;39.616;8.824;2023-02-24T06:33:35;17.65;;;8.25;;
66607;SDS011;53462;39.616;8.824;2023-02-24T06:36:05;21.92;;;8.70;;
66607;SDS011;53462;39.616;8.824;2023-02-24T06:38:35;17.50;;;8.13;;
66607;SDS011;53462;39.616;8.824;2023-02-24T06:41:02;16.45;;;8.18;;
66607;SDS011;53462;39.616;8.824;2023-02-24T06:46:04;20.77;;;10.18;;
66607;SDS011;53462;39.616;8.824;2023-02-24T06:48:32;19.25;;;9.07;;
66607;SDS011;53462;39.616;8.824;2023-02-24T06:51:08;22.58;;;10.80;;
66607;SDS011;53462;39.616;8.824;2023-02-24T06:53:37;18.92;;;9.80;;
66607;SDS011;53462;39.616;8.824;2023-02-24T06:56:14;18.65;;;9.82;;
66607;SDS011;53462;39.616;8.824;2023-02-24T06:58:47;15.35;;;8.15;;
66607;SDS011;53462;39.616;8.824;2023-02-24T07:01:22;18.02;;;9.02;;
66607;SDS011;53462;39.616;8.824;2023-02-24T07:03:50;16.10;;;8.80;;
66607;SDS011;53462;39.616;8.824;2023-02-24T07:06:52;16.08;;;8.15;;
66607;SDS011;53462;39.616;8.824;2023-02-24T07:09:21;13.98;;;8.35;;
66607;SDS011;53462;39.616;8.824;2023-02-24T07:11:49;14.70;;;8.93;;
66607;SDS011;53462;39.616;8.824;2023-02-24T07:14:17;18.50;;;9.13;;
66607;SDS011;53462;39.616;8.824;2023-02-24T07:16:47;40.97;;;19.92;;
66607;SDS011;53462;39.616;8.824;2023-02-24T07:19:19;44.87;;;20.20;;
66607;SDS011;53462;39.616;8.824;2023-02-24T07:21:47;32.33;;;16.70;;
66607;SDS011;53462;39.616;8.824;2023-02-24T07:24:18;20.73;;;12.10;;
66607;SDS011;53462;39.616;8.824;2023-02-24T07:27:13;29.30;;;13.52;;
66607;SDS011;53462;39.616;8.824;2023-02-24T07:29:46;18.88;;;10.05;;
66607;SDS011;53462;39.616;8.824;2023-02-24T07:32:13;21.83;;;12.50;;
66607;SDS011;53462;39.616;8.824;2023-02-24T07:34:42;18.15;;;10.80;;
66607;SDS011;53462;39.616;8.824;2023-02-24T07:37:08;18.90;;;10.25;;
66607;SDS011;53462;39.616;8.824;2023-02-24T07:39:35;16.92;;;9.93;;
66607;SDS011;53462;39.616;8.824;2023-02-24T07:42:03;22.23;;;9.40;;
66607;SDS011;53462;39.616;8.824;2023-02-24T07:44:41;18.83;;;7.88;;
66607;SDS011;53462;39.616;8.824;2023-02-24T07:47:08;31.33;;;15.88;;
66607;SDS011;53462;39.616;8.824;2023-02-24T07:49:35;15.00;;;9.45;;
66607;SDS011;53462;39.616;8.824;2023-02-24T07:52:03;27.30;;;13.85;;
66607;SDS011;53462;39.616;8.824;2023-02-24T07:54:32;34.38;;;17.58;;
66607;SDS011;53462;39.616;8.824;2023-02-24T07:56:58;16.52;;;8.85;;
66607;SDS011;53462;39.616;8.824;2023-02-24T07:59:25;16.67;;;8.63;;
66607;SDS011;53462;39.616;8.824;2023-02-24T08:01:53;17.88;;;8.68;;
66607;SDS011;53462;39.616;8.824;2023-02-24T08:04:21;15.50;;;8.32;;
66607;SDS011;53462;39.616;8.824;2023-02-24T08:06:52;16.48;;;8.48;;
66607;SDS011;53462;39.616;8.824;2023-02-24T08:09:24;15.07;;;8.07;;
66607;SDS011;53462;39.616;8.824;2023-02-24T08:12:07;14.63;;;7.75;;
66607;SDS011;53462;39.616;8.824;2023-02-24T08:14:33;16.20;;;8.05;;
66607;SDS011;53462;39.616;8.824;2023-02-24T08:16:59;16.88;;;8.68;;
66607;SDS011;53462;39.616;8.824;2023-02-24T08:19:32;19.25;;;10.18;;
66607;SDS011;53462;39.616;8.824;2023-02-24T08:22:07;22.40;;;13.20;;
66607;SDS011;53462;39.616;8.824;2023-02-24T08:24:45;26.52;;;12.90;;
66607;SDS011;53462;39.616;8.824;2023-02-24T08:27:17;27.95;;;14.30;;
66607;SDS011;53462;39.616;8.824;2023-02-24T08:29:54;22.88;;;12.98;;
66607;SDS011;53462;39.616;8.824;2023-02-24T08:35:08;15.02;;;8.30;;
66607;SDS011;53462;39.616;8.824;2023-02-24T08:37:41;16.90;;;8.32;;
66607;SDS011;53462;39.616;8.824;2023-02-24T08:45:25;17.50;;;7.93;;
66607;SDS011;53462;39.616;8.824;2023-02-24T08:47:53;15.63;;;7.60;;
66607;SDS011;53462;39.616;8.824;2023-02-24T08:50:27;16.38;;;8.05;;
66607;SDS011;53462;39.616;8.824;2023-02-24T08:52:58;13.90;;;8.80;;
66607;SDS011;53462;39.616;8.824;2023-02-24T08:55:25;17.63;;;9.90;;
66607;SDS011;53462;39.616;8.824;2023-02-24T08:57:57;17.23;;;8.35;;
66607;SDS011;53462;39.616;8.824;2023-02-24T09:00:29;19.08;;;9.25;;
66607;SDS011;53462;39.616;8.824;2023-02-24T09:03:16;16.83;;;9.10;;
66607;SDS011;53462;39.616;8.824;2023-02-24T09:05:56;18.23;;;10.30;;
66607;SDS011;53462;39.616;8.824;2023-02-24T09:08:29;21.00;;;9.05;;
66607;SDS011;53462;39.616;8.824;2023-02-24T09:10:58;23.42;;;9.52;;
66607;SDS011;53462;39.616;8.824;2023-02-24T09:13:34;19.00;;;8.98;;
66607;SDS011;53462;39.616;8.824;2023-02-24T09:16:02;18.15;;;9.48;;
66607;SDS011;53462;39.616;8.824;2023-02-24T09:18:29;18.90;;;9.70;;
66607;SDS011;53462;39.616;8.824;2023-02-24T09:20:55;16.73;;;9.27;;
66607;SDS011;53462;39.616;8.824;2023-02-24T09:23:40;18.27;;;9.10;;
66607;SDS011;53462;39.616;8.824;2023-02-24T09:26:10;17.83;;;8.55;;
66607;SDS011;53462;39.616;8.824;2023-02-24T09:28:38;16.63;;;8.07;;
66607;SDS011;53462;39.616;8.824;2023-02-24T09:31:18;17.55;;;7.35;;
66607;SDS011;53462;39.616;8.824;2023-02-24T09:33:48;14.60;;;8.25;;
66607;SDS011;53462;39.616;8.824;2023-02-24T09:36:18;16.23;;;7.60;;
66607;SDS011;53462;39.616;8.824;2023-02-24T09:38:56;14.73;;;7.20;;
66607;SDS011;53462;39.616;8.824;2023-02-24T09:47:14;16.40;;;6.88;;
66607;SDS011;53462;39.616;8.824;2023-02-24T09:50:29;14.50;;;5.85;;
66607;SDS011;53462;39.616;8.824;2023-02-24T09:53:14;13.68;;;6.88;;
66607;SDS011;53462;39.616;8.824;2023-02-24T09:58:35;17.67;;;7.13;;
66607;SDS011;53462;39.616;8.824;2023-02-24T10:06:41;13.75;;;6.85;;
66607;SDS011;53462;39.616;8.824;2023-02-24T10:11:55;13.32;;;7.07;;
66607;SDS011;53462;39.616;8.824;2023-02-24T10:14:30;14.45;;;7.20;;
66607;SDS011;53462;39.616;8.824;2023-02-24T10:17:18;12.90;;;7.38;;
66607;SDS011;53462;39.616;8.824;2023-02-24T10:19:49;17.52;;;7.88;;
66607;SDS011;53462;39.616;8.824;2023-02-24T10:33:39;14.85;;;7.88;;
66607;SDS011;53462;39.616;8.824;2023-02-24T10:36:11;13.55;;;8.05;;
66607;SDS011;53462;39.616;8.824;2023-02-24T10:38:41;16.65;;;8.13;;
66607;SDS011;53462;39.616;8.824;2023-02-24T10:41:14;15.70;;;8.30;;
66607;SDS011;53462;39.616;8.824;2023-02-24T10:43:51;16.75;;;8.38;;
66607;SDS011;53462;39.616;8.824;2023-02-24T10:46:22;16.13;;;8.52;;
66607;SDS011;53462;39.616;8.824;2023-02-24T10:48:58;17.55;;;8.32;;
66607;SDS011;53462;39.616;8.824;2023-02-24T10:51:30;15.75;;;7.97;;
66607;SDS011;53462;39.616;8.824;2023-02-24T10:54:06;15.05;;;8.10;;
66607;SDS011;53462;39.616;8.824;2023-02-24T10:56:47;17.55;;;8.10;;
66607;SDS011;53462;39.616;8.824;2023-02-24T10:59:41;17.60;;;7.30;;
66607;SDS011;53462;39.616;8.824;2023-02-24T11:02:23;13.38;;;6.43;;
66607;SDS011;53462;39.616;8.824;2023-02-24T11:04:57;15.45;;;6.65;;
66607;SDS011;53462;39.616;8.824;2023-02-24T11:07:27;13.13;;;7.13;;
66607;SDS011;53462;39.616;8.824;2023-02-24T11:10:19;15.63;;;7.45;;
66607;SDS011;53462;39.616;8.824;2023-02-24T11:13:11;16.52;;;8.18;;
66607;SDS011;53462;39.616;8.824;2023-02-24T11:15:58;16.73;;;7.13;;
66607;SDS011;53462;39.616;8.824;2023-02-24T11:18:45;17.83;;;7.82;;
66607;SDS011;53462;39.616;8.824;2023-02-24T11:21:17;19.98;;;7.95;;
66607;SDS011;53462;39.616;8.824;2023-02-24T11:23:44;15.10;;;7.20;;
66607;SDS011;53462;39.616;8.824;2023-02-24T11:26:21;16.83;;;7.57;;
66607;SDS011;53462;39.616;8.824;2023-02-24T11:29:40;17.17;;;8.25;;
66607;SDS011;53462;39.616;8.824;2023-02-24T11:37:33;13.85;;;7.10;;
66607;SDS011;53462;39.616;8.824;2023-02-24T11:40:18;21.70;;;7.82;;
66607;SDS011;53462;39.616;8.824;2023-02-24T11:48:05;18.33;;;7.60;;
66607;SDS011;53462;39.616;8.824;2023-02-24T11:50:46;18.92;;;7.97;;
66607;SDS011;53462;39.616;8.824;2023-02-24T11:53:21;18.35;;;7.25;;
66607;SDS011;53462;39.616;8.824;2023-02-24T11:55:50;21.45;;;8.05;;
66607;SDS011;53462;39.616;8.824;2023-02-24T11:58:24;18.83;;;7.65;;
66607;SDS011;53462;39.616;8.824;2023-02-24T12:01:05;15.13;;;7.07;;
66607;SDS011;53462;39.616;8.824;2023-02-24T12:06:28;14.38;;;7.15;;
66607;SDS011;53462;39.616;8.824;2023-02-24T12:09:06;15.50;;;7.28;;
66607;SDS011;53462;39.616;8.824;2023-02-24T12:11:38;16.15;;;7.20;;
66607;SDS011;53462;39.616;8.824;2023-02-24T12:14:15;15.82;;;7.53;;
66607;SDS011;53462;39.616;8.824;2023-02-24T12:16:47;14.75;;;8.38;;
66607;SDS011;53462;39.616;8.824;2023-02-24T12:22:05;17.70;;;7.78;;
66607;SDS011;53462;39.616;8.824;2023-02-24T12:24:44;14.65;;;7.45;;
66607;SDS011;53462;39.616;8.824;2023-02-24T12:43:43;14.05;;;6.50;;
66607;SDS011;53462;39.616;8.824;2023-02-24T12:46:22;16.33;;;6.57;;
66607;SDS011;53462;39.616;8.824;2023-02-24T12:51:31;12.73;;;6.20;;
66607;SDS011;53462;39.616;8.824;2023-02-24T12:54:20;16.92;;;6.88;;
66607;SDS011;53462;39.616;8.824;2023-02-24T12:56:55;16.77;;;7.15;;
66607;SDS011;53462;39.616;8.824;2023-02-24T12:59:44;13.30;;;6.43;;
66607;SDS011;53462;39.616;8.824;2023-02-24T13:05:10;19.02;;;6.95;;
66607;SDS011;53462;39.616;8.824;2023-02-24T13:13:14;18.40;;;6.85;;
66607;SDS011;53462;39.616;8.824;2023-02-24T13:15:52;15.05;;;6.60;;
66607;SDS011;53462;39.616;8.824;2023-02-24T13:18:27;17.38;;;6.82;;
66607;SDS011;53462;39.616;8.824;2023-02-24T13:21:19;14.07;;;5.30;;
66607;SDS011;53462;39.616;8.824;2023-02-24T13:23:54;13.93;;;6.43;;
66607;SDS011;53462;39.616;8.824;2023-02-24T13:26:23;13.18;;;5.40;;
66607;SDS011;53462;39.616;8.824;2023-02-24T13:29:01;13.93;;;5.70;;
66607;SDS011;53462;39.616;8.824;2023-02-24T13:34:40;9.80;;;5.05;;
66607;SDS011;53462;39.616;8.824;2023-02-24T13:39:38;13.48;;;5.18;;
66607;SDS011;53462;39.616;8.824;2023-02-24T13:42:27;12.07;;;5.20;;
66607;SDS011;53462;39.616;8.824;2023-02-24T13:45:04;14.52;;;5.68;;
66607;SDS011;53462;39.616;8.824;2023-02-24T14:02:41;13.18;;;4.90;;
66607;SDS011;53462;39.616;8.824;2023-02-24T14:05:10;12.95;;;5.25;;
66607;SDS011;53462;39.616;8.824;2023-02-24T14:07:46;15.43;;;5.00;;
66607;SDS011;53462;39.616;8.824;2023-02-24T14:10:18;12.90;;;5.13;;
66607;SDS011;53462;39.616;8.824;2023-02-24T14:12:47;17.00;;;5.43;;
66607;SDS011;53462;39.616;8.824;2023-02-24T14:15:15;10.27;;;5.00;;
66607;SDS011;53462;39.616;8.824;2023-02-24T14:17:59;12.40;;;5.25;;
66607;SDS011;53462;39.616;8.824;2023-02-24T14:20:30;14.07;;;5.70;;
66607;SDS011;53462;39.616;8.824;2023-02-24T14:22:57;11.55;;;5.47;;
66607;SDS011;53462;39.616;8.824;2023-02-24T14:25:29;11.10;;;4.38;;
66607;SDS011;53462;39.616;8.824;2023-02-24T14:28:00;15.88;;;5.13;;
66607;SDS011;53462;39.616;8.824;2023-02-24T14:30:38;14.27;;;5.25;;
66607;SDS011;53462;39.616;8.824;2023-02-24T14:33:06;13.00;;;5.80;;
66607;SDS011;53462;39.616;8.824;2023-02-24T14:35:52;11.90;;;5.43;;
66607;SDS011;53462;39.616;8.824;2023-02-24T14:38:37;14.45;;;5.63;;
66607;SDS011;53462;39.616;8.824;2023-02-24T14:41:05;15.75;;;5.00;;
66607;SDS011;53462;39.616;8.824;2023-02-24T14:43:41;13.27;;;5.07;;
66607;SDS011;53462;39.616;8.824;2023-02-24T14:46:07;13.15;;;5.25;;
66607;SDS011;53462;39.616;8.824;2023-02-24T14:48:33;9.52;;;5.20;;
66607;SDS011;53462;39.616;8.824;2023-02-24T14:51:00;25.30;;;6.57;;
66607;SDS011;53462;39.616;8.824;2023-02-24T14:53:37;16.73;;;6.88;;
66607;SDS011;53462;39.616;8.824;2023-02-24T14:56:08;15.05;;;6.78;;
66607;SDS011;53462;39.616;8.824;2023-02-24T14:58:41;16.27;;;6.22;;
66607;SDS011;53462;39.616;8.824;2023-02-24T15:06:45;16.55;;;6.70;;
66607;SDS011;53462;39.616;8.824;2023-02-24T15:09:13;20.80;;;6.03;;
66607;SDS011;53462;39.616;8.824;2023-02-24T15:11:43;26.40;;;7.60;;
66607;SDS011;53462;39.616;8.824;2023-02-24T15:14:19;17.63;;;6.35;;
66607;SDS011;53462;39.616;8.824;2023-02-24T15:16:50;15.63;;;6.43;;
66607;SDS011;53462;39.616;8.824;2023-02-24T15:19:25;21.08;;;6.90;;
66607;SDS011;53462;39.616;8.824;2023-02-24T15:22:01;23.63;;;7.70;;
66607;SDS011;53462;39.616;8.824;2023-02-24T15:24:30;23.55;;;7.93;;
66607;SDS011;53462;39.616;8.824;2023-02-24T15:26:58;25.27;;;8.50;;
66607;SDS011;53462;39.616;8.824;2023-02-24T15:29:28;23.95;;;8.05;;
66607;SDS011;53462;39.616;8.824;2023-02-24T15:31:56;19.15;;;7.88;;
66607;SDS011;53462;39.616;8.824;2023-02-24T15:34:25;19.30;;;7.32;;
66607;SDS011;53462;39.616;8.824;2023-02-24T15:36:56;18.63;;;7.18;;
66607;SDS011;53462;39.616;8.824;2023-02-24T15:39:28;13.63;;;6.57;;
66607;SDS011;53462;39.616;8.824;2023-02-24T15:44:56;20.23;;;8.05;;
66607;SDS011;53462;39.616;8.824;2023-02-24T15:47:26;18.60;;;7.40;;
66607;SDS011;53462;39.616;8.824;2023-02-24T15:50:05;24.85;;;9.02;;
66607;SDS011;53462;39.616;8.824;2023-02-24T15:52:31;22.13;;;8.98;;
66607;SDS011;53462;39.616;8.824;2023-02-24T15:54:57;23.20;;;8.82;;
66607;SDS011;53462;39.616;8.824;2023-02-24T15:57:27;20.40;;;8.25;;
66607;SDS011;53462;39.616;8.824;2023-02-24T15:59:55;19.08;;;8.40;;
66607;SDS011;53462;39.616;8.824;2023-02-24T16:02:21;24.98;;;11.10;;
66607;SDS011;53462;39.616;8.824;2023-02-24T16:04:48;43.05;;;20.40;;
66607;SDS011;53462;39.616;8.824;2023-02-24T16:07:20;27.75;;;12.05;;
66607;SDS011;53462;39.616;8.824;2023-02-24T16:09:49;22.58;;;9.05;;
66607;SDS011;53462;39.616;8.824;2023-02-24T16:12:21;26.90;;;12.63;;
66607;SDS011;53462;39.616;8.824;2023-02-24T16:14:52;27.38;;;12.05;;
66607;SDS011;53462;39.616;8.824;2023-02-24T16:20:00;22.98;;;8.45;;
66607;SDS011;53462;39.616;8.824;2023-02-24T16:22:27;19.70;;;9.52;;
66607;SDS011;53462;39.616;8.824;2023-02-24T16:24:53;20.60;;;6.72;;
66607;SDS011;53462;39.616;8.824;2023-02-24T16:27:20;22.52;;;7.18;;
66607;SDS011;53462;39.616;8.824;2023-02-24T16:29:47;17.90;;;6.88;;
66607;SDS011;53462;39.616;8.824;2023-02-24T16:32:13;18.38;;;7.78;;
66607;SDS011;53462;39.616;8.824;2023-02-24T16:34:40;22.38;;;9.15;;
66607;SDS011;53462;39.616;8.824;2023-02-24T16:37:14;33.70;;;11.93;;
66607;SDS011;53462;39.616;8.824;2023-02-24T16:39:45;31.60;;;13.50;;
66607;SDS011;53462;39.616;8.824;2023-02-24T16:42:14;26.30;;;11.90;;
66607;SDS011;53462;39.616;8.824;2023-02-24T16:44:41;21.95;;;9.15;;
66607;SDS011;53462;39.616;8.824;2023-02-24T16:47:11;16.45;;;8.45;;
66607;SDS011;53462;39.616;8.824;2023-02-24T16:49:41;21.02;;;7.88;;
66607;SDS011;53462;39.616;8.824;2023-02-24T16:52:07;29.13;;;8.45;;
66607;SDS011;53462;39.616;8.824;2023-02-24T16:54:35;30.05;;;9.00;;
66607;SDS011;53462;39.616;8.824;2023-02-24T16:57:01;20.17;;;8.52;;
66607;SDS011;53462;39.616;8.824;2023-02-24T16:59:27;23.83;;;11.48;;
66607;SDS011;53462;39.616;8.824;2023-02-24T17:01:53;28.02;;;14.38;;
66607;SDS011;53462;39.616;8.824;2023-02-24T17:04:20;30.60;;;12.57;;
66607;SDS011;53462;39.616;8.824;2023-02-24T17:06:48;26.33;;;10.93;;
66607;SDS011;53462;39.616;8.824;2023-02-24T17:09:15;24.88;;;13.52;;
66607;SDS011;53462;39.616;8.824;2023-02-24T17:11:42;35.72;;;15.65;;
66607;SDS011;53462;39.616;8.824;2023-02-24T17:14:15;31.88;;;14.35;;
66607;SDS011;53462;39.616;8.824;2023-02-24T17:16:43;36.58;;;15.40;;
66607;SDS011;53462;39.616;8.824;2023-02-24T17:19:10;47.45;;;20.58;;
66607;SDS011;53462;39.616;8.824;2023-02-24T17:21:37;35.58;;;19.08;;
66607;SDS011;53462;39.616;8.824;2023-02-24T17:24:06;33.60;;;16.38;;
66607;SDS011;53462;39.616;8.824;2023-02-24T17:26:37;35.88;;;19.10;;
66607;SDS011;53462;39.616;8.824;2023-02-24T17:29:04;39.95;;;20.05;;
66607;SDS011;53462;39.616;8.824;2023-02-24T17:31:30;32.47;;;16.85;;
66607;SDS011;53462;39.616;8.824;2023-02-24T17:33:57;33.30;;;16.38;;
66607;SDS011;53462;39.616;8.824;2023-02-24T17:36:23;35.15;;;17.92;;
66607;SDS011;53462;39.616;8.824;2023-02-24T17:38:49;32.30;;;14.38;;
66607;SDS011;53462;39.616;8.824;2023-02-24T17:41:15;41.05;;;19.02;;
66607;SDS011;53462;39.616;8.824;2023-02-24T17:43:41;44.72;;;19.75;;
66607;SDS011;53462;39.616;8.824;2023-02-24T17:46:06;37.42;;;19.83;;
66607;SDS011;53462;39.616;8.824;2023-02-24T17:48:33;34.83;;;20.80;;
66607;SDS011;53462;39.616;8.824;2023-02-24T17:50:59;35.75;;;18.95;;